Time;durP1;ratioP1;P1;durP2;ratioP2;P2;SDS_P1;SDS_P2;PMS_P1;PMS_P2;Temp;Humidity;BMP_temperature;BMP_pressure;BME280_temperature;BME280_humidity;BME280_pressure;Samples;Min_cycle;Max_cycle;Signal;HPM_P1;HPM_P2
2021/12/11 00:01:07;;;;;;;35.67;21.33;;;-1.50;99.90;;;;;;5091545;28;20051;-67
2021/12/11 00:03:39;;;;;;;29.40;19.20;;;-1.40;99.90;;;;;;5136254;27;20100;-66
2021/12/11 00:06:14;;;;;;;31.48;19.60;;;-1.40;99.90;;;;;;5109944;28;20491;-67
2021/12/11 00:08:42;;;;;;;30.50;18.48;;;-1.40;99.90;;;;;;5103056;28;20055;-67
2021/12/11 00:11:18;;;;;;;26.88;18.27;;;-1.40;99.90;;;;;;5113160;28;20052;-66
2021/12/11 00:13:45;;;;;;;28.95;17.80;;;-1.40;99.90;;;;;;5111998;28;20048;-67
2021/12/11 00:16:16;;;;;;;30.02;18.25;;;-1.40;99.90;;;;;;5128332;28;20426;-67
2021/12/11 00:18:43;;;;;;;32.13;20.23;;;-1.30;99.90;;;;;;5110917;28;20044;-66
2021/12/11 00:21:17;;;;;;;28.20;18.60;;;-1.40;99.90;;;;;;5093955;28;20040;-67
2021/12/11 00:23:51;;;;;;;31.77;19.38;;;-1.40;99.90;;;;;;5107678;28;20133;-67
2021/12/11 00:26:29;;;;;;;32.88;20.02;;;-1.50;99.90;;;;;;5104701;28;20101;-67
2021/12/11 00:28:55;;;;;;;33.88;18.60;;;-1.50;99.90;;;;;;5128646;28;20067;-66
2021/12/11 00:31:22;;;;;;;32.60;19.20;;;-1.50;99.90;;;;;;5126114;28;20098;-67
2021/12/11 00:33:50;;;;;;;27.63;18.27;;;-1.60;99.90;;;;;;5128728;28;20050;-66
2021/12/11 00:36:19;;;;;;;29.25;18.75;;;-1.60;99.90;;;;;;5127428;28;20040;-67
2021/12/11 00:38:49;;;;;;;36.13;19.17;;;-1.70;99.90;;;;;;5095408;27;20034;-68
2021/12/11 00:41:17;;;;;;;33.75;19.73;;;-1.60;99.90;;;;;;5110423;28;20079;-67
2021/12/11 00:43:44;;;;;;;27.13;18.05;;;-1.60;99.90;;;;;;5130375;27;20043;-67
2021/12/11 00:46:17;;;;;;;34.47;21.70;;;-1.80;99.90;;;;;;5111573;28;20491;-64
2021/12/11 00:48:43;;;;;;;33.83;21.02;;;-1.80;99.90;;;;;;5129408;27;20043;-64
2021/12/11 00:51:17;;;;;;;34.15;22.77;;;-1.80;99.90;;;;;;5110336;28;20053;-64
2021/12/11 00:53:47;;;;;;;38.42;24.88;;;-1.80;99.90;;;;;;5116487;27;20083;-63
2021/12/11 00:56:21;;;;;;;37.28;24.23;;;-1.90;99.90;;;;;;5128379;28;20047;-64
2021/12/11 00:58:50;;;;;;;37.20;23.15;;;-1.90;99.90;;;;;;5130409;27;20040;-66
2021/12/11 01:01:27;;;;;;;36.72;23.30;;;-1.90;99.90;;;;;;5129893;27;20047;-67
2021/12/11 01:04:26;;;;;;;41.65;25.38;;;-1.90;99.90;;;;;;5131715;27;20050;-67
2021/12/11 01:07:06;;;;;;;41.55;24.30;;;-1.90;99.90;;;;;;5120815;27;20060;-67
2021/12/11 01:09:47;;;;;;;41.25;24.50;;;-1.90;99.90;;;;;;5132502;27;20205;-67
2021/12/11 01:12:21;;;;;;;41.60;25.85;;;-1.90;99.90;;;;;;5111649;28;20123;-67
2021/12/11 01:15:13;;;;;;;41.70;23.40;;;-1.90;99.90;;;;;;5111245;27;20040;-69
2021/12/11 01:18:01;;;;;;;39.15;22.70;;;-1.90;99.90;;;;;;5122229;28;20039;-66
2021/12/11 01:20:37;;;;;;;38.47;22.70;;;-2.00;99.90;;;;;;5113142;27;20039;-66
2021/12/11 01:23:16;;;;;;;34.60;20.73;;;-2.00;99.90;;;;;;5128048;27;20047;-66
2021/12/11 01:25:42;;;;;;;34.03;21.25;;;-2.00;99.90;;;;;;5110449;28;20044;-66
2021/12/11 01:28:08;;;;;;;39.97;23.55;;;-2.00;99.90;;;;;;5110705;27;20155;-66
2021/12/11 01:30:40;;;;;;;36.25;21.42;;;-1.90;99.90;;;;;;5098320;28;20086;-66
2021/12/11 01:33:08;;;;;;;34.58;21.50;;;-1.80;99.90;;;;;;5131743;27;20100;-66
2021/12/11 01:35:34;;;;;;;34.45;20.45;;;-1.90;99.90;;;;;;5114875;28;20048;-67
2021/12/11 01:38:18;;;;;;;34.22;21.38;;;-1.90;99.90;;;;;;5115252;27;20053;-66
2021/12/11 01:40:51;;;;;;;33.60;19.80;;;-2.00;99.90;;;;;;5113824;28;20056;-66
2021/12/11 01:43:21;;;;;;;33.92;20.42;;;-2.10;99.90;;;;;;5117858;27;20105;-64
2021/12/11 01:45:50;;;;;;;31.05;19.85;;;-2.00;99.90;;;;;;5134279;27;20032;-64
2021/12/11 01:48:19;;;;;;;26.00;16.33;;;-2.10;99.90;;;;;;5116085;27;20068;-66
2021/12/11 01:50:50;;;;;;;27.58;18.25;;;-2.10;99.90;;;;;;5110945;28;20054;-66
2021/12/11 01:53:34;;;;;;;30.83;17.20;;;-2.00;99.90;;;;;;5109702;28;20047;-66
2021/12/11 01:56:07;;;;;;;27.38;16.65;;;-2.00;99.90;;;;;;5109686;28;20139;-66
2021/12/11 01:59:02;;;;;;;24.55;15.75;;;-2.10;99.90;;;;;;5131003;27;20046;-66
2021/12/11 02:01:50;;;;;;;24.00;15.77;;;-2.20;99.90;;;;;;5105475;27;20103;-66
2021/12/11 02:04:18;;;;;;;25.27;17.05;;;-2.20;99.90;;;;;;5107364;28;20054;-66
2021/12/11 02:06:47;;;;;;;28.92;16.88;;;-2.20;99.90;;;;;;5132789;27;20122;-66
2021/12/11 02:09:22;;;;;;;31.27;16.45;;;-2.20;99.90;;;;;;5131999;27;20059;-66
2021/12/11 02:11:51;;;;;;;29.02;17.70;;;-2.20;99.90;;;;;;5111470;27;20035;-66
2021/12/11 02:14:25;;;;;;;28.52;16.67;;;-2.20;99.90;;;;;;5109979;28;20493;-67
2021/12/11 02:16:53;;;;;;;29.33;17.65;;;-2.10;99.90;;;;;;5109015;28;20548;-66
2021/12/11 02:19:30;;;;;;;34.05;17.95;;;-2.10;99.90;;;;;;5106477;28;20053;-66
2021/12/11 02:22:10;;;;;;;31.70;18.08;;;-2.00;99.90;;;;;;5105267;28;20054;-66
2021/12/11 02:24:36;;;;;;;;;;;-2.00;99.90;;;;;;5126484;27;20043;-67
2021/12/11 02:27:11;;;;;;;28.00;16.30;;;-2.10;99.90;;;;;;5110967;28;19927;-67
2021/12/11 02:29:42;;;;;;;29.08;17.35;;;-2.00;99.90;;;;;;5112254;28;20518;-66
2021/12/11 02:32:34;;;;;;;28.13;16.70;;;-2.10;99.90;;;;;;5127114;27;20173;-66
2021/12/11 02:35:07;;;;;;;28.52;17.40;;;-2.10;99.90;;;;;;5105101;28;20140;-66
2021/12/11 02:37:52;;;;;;;29.40;15.73;;;-2.10;99.90;;;;;;5133446;27;20484;-67
2021/12/11 02:40:21;;;;;;;27.55;16.23;;;-2.20;99.90;;;;;;5108155;28;20036;-66
2021/12/11 02:42:54;;;;;;;29.58;18.20;;;-2.20;99.90;;;;;;5108298;28;20448;-67
2021/12/11 02:45:36;;;;;;;32.78;17.90;;;-2.20;99.90;;;;;;5110018;27;20055;-67
2021/12/11 02:48:34;;;;;;;32.65;18.55;;;-2.20;99.90;;;;;;5120347;28;20077;-67
2021/12/11 02:51:10;;;;;;;29.65;17.95;;;-2.20;99.90;;;;;;5107307;28;20056;-67
2021/12/11 02:53:47;;;;;;;33.58;17.40;;;-2.20;99.90;;;;;;5127436;27;20051;-66
2021/12/11 02:56:19;;;;;;;30.20;17.95;;;-2.20;99.90;;;;;;5109239;28;20050;-67
2021/12/11 02:58:50;;;;;;;31.88;17.75;;;-2.20;99.90;;;;;;5113982;27;20051;-66
2021/12/11 03:01:24;;;;;;;27.77;17.42;;;-2.20;99.90;;;;;;5110996;28;20511;-67
2021/12/11 03:04:00;;;;;;;28.67;16.33;;;-2.20;99.90;;;;;;5127603;27;20043;-66
2021/12/11 03:06:28;;;;;;;25.45;16.52;;;-2.20;99.90;;;;;;5112222;28;20075;-67
2021/12/11 03:08:57;;;;;;;27.95;16.88;;;-2.10;99.90;;;;;;5129345;27;20047;-67
2021/12/11 03:11:27;;;;;;;27.65;16.17;;;-2.10;99.90;;;;;;5111601;28;20054;-67
2021/12/11 03:13:57;;;;;;;25.67;14.70;;;-2.10;99.90;;;;;;5127617;27;20073;-67
2021/12/11 03:16:30;;;;;;;24.52;15.85;;;-2.00;99.90;;;;;;5091508;28;20040;-66
2021/12/11 03:18:57;;;;;;;25.88;15.80;;;-2.10;99.90;;;;;;5105879;28;20560;-67
2021/12/11 03:21:23;;;;;;;25.83;15.27;;;-2.10;99.90;;;;;;5107627;28;20047;-66
2021/12/11 03:23:52;;;;;;;24.38;14.98;;;-2.20;99.90;;;;;;5126483;28;20079;-66
2021/12/11 03:26:18;;;;;;;26.67;14.20;;;-2.20;99.90;;;;;;5109795;27;20039;-67
2021/12/11 03:28:44;;;;;;;21.17;13.82;;;-2.30;99.90;;;;;;5111015;28;20054;-67
2021/12/11 03:31:10;;;;;;;24.48;15.20;;;-2.40;99.90;;;;;;5094655;28;20076;-67
2021/12/11 03:33:41;;;;;;;24.13;14.52;;;-2.40;99.90;;;;;;5126574;27;20046;-67
2021/12/11 03:36:10;;;;;;;27.48;16.13;;;-2.40;99.90;;;;;;5108979;28;20043;-67
2021/12/11 03:38:38;;;;;;;25.55;15.35;;;-2.40;99.90;;;;;;5110648;28;20075;-67
2021/12/11 03:41:04;;;;;;;22.65;14.48;;;-2.40;99.90;;;;;;5123384;27;20095;-67
2021/12/11 03:43:31;;;;;;;24.38;14.10;;;-2.30;99.90;;;;;;5124891;28;20453;-67
2021/12/11 03:45:59;;;;;;;28.75;15.18;;;-2.30;99.90;;;;;;5109806;28;20048;-67
2021/12/11 03:48:49;;;;;;;30.40;16.80;;;-2.30;99.90;;;;;;5107478;27;20133;-67
2021/12/11 03:51:17;;;;;;;27.47;14.47;;;-2.20;99.90;;;;;;5103283;28;20039;-67
2021/12/11 03:53:44;;;;;;;24.35;15.27;;;-2.10;99.90;;;;;;5107460;28;20043;-67
2021/12/11 03:56:12;;;;;;;23.30;14.35;;;-2.10;99.90;;;;;;5109599;28;20461;-67
2021/12/11 03:58:38;;;;;;;26.92;16.13;;;-2.20;99.90;;;;;;5107949;28;20044;-67
2021/12/11 04:01:13;;;;;;;25.77;14.32;;;-2.30;99.90;;;;;;5124535;28;20049;-67
2021/12/11 04:03:42;;;;;;;22.88;14.75;;;-2.40;99.90;;;;;;5090185;28;20523;-67
2021/12/11 04:06:10;;;;;;;24.40;15.10;;;-2.40;99.90;;;;;;5110868;28;20043;-67
2021/12/11 04:08:41;;;;;;;26.00;15.43;;;-2.50;99.90;;;;;;5107510;28;20050;-67
2021/12/11 04:11:17;;;;;;;33.17;17.33;;;-2.50;99.90;;;;;;5125577;28;20043;-67
2021/12/11 04:13:43;;;;;;;34.17;19.10;;;-2.50;99.90;;;;;;5107782;28;20043;-67
2021/12/11 04:16:10;;;;;;;35.25;19.75;;;-2.40;99.90;;;;;;5111245;28;20044;-67
2021/12/11 04:18:37;;;;;;;35.30;19.52;;;-2.30;99.90;;;;;;5127123;28;20119;-66
2021/12/11 04:21:03;;;;;;;36.90;20.75;;;-2.20;99.90;;;;;;5106733;28;20051;-66
2021/12/11 04:23:30;;;;;;;36.67;20.23;;;-2.10;99.90;;;;;;5125381;28;20060;-67
2021/12/11 04:25:57;;;;;;;36.97;20.23;;;-2.10;99.90;;;;;;5109326;28;20427;-66
2021/12/11 04:28:26;;;;;;;34.13;19.98;;;-2.10;99.90;;;;;;5110345;28;20406;-66
2021/12/11 04:31:03;;;;;;;36.28;18.73;;;-2.10;99.90;;;;;;5127915;28;20047;-66
2021/12/11 04:33:29;;;;;;;34.15;20.15;;;-2.10;99.90;;;;;;5130015;28;20048;-66
2021/12/11 04:35:56;;;;;;;31.75;19.13;;;-2.20;99.90;;;;;;5092903;28;20043;-66
2021/12/11 04:38:23;;;;;;;31.20;18.70;;;-2.10;99.90;;;;;;5126946;28;20039;-66
2021/12/11 04:40:53;;;;;;;34.20;18.05;;;-2.20;99.90;;;;;;5126980;28;20082;-66
2021/12/11 04:43:22;;;;;;;30.98;18.02;;;-2.20;99.90;;;;;;5111301;28;20044;-66
2021/12/11 04:46:01;;;;;;;30.45;17.33;;;-2.20;99.90;;;;;;5108564;28;20044;-66
2021/12/11 04:51:25;;;;;;;30.20;17.27;;;-2.20;99.90;;;;;;5107586;28;20087;-66
2021/12/11 04:59:44;;;;;;;27.80;16.70;;;-2.20;99.90;;;;;;5110481;28;20048;-66
2021/12/11 05:10:01;;;;;;;47.65;24.98;;;-2.00;99.90;;;;;;5110778;28;20073;-66
2021/12/11 05:12:35;;;;;;;32.85;18.85;;;-1.70;99.90;;;;;;5112817;28;20081;-66
2021/12/11 05:15:23;;;;;;;33.22;19.02;;;-1.80;99.90;;;;;;5108963;28;20140;-66
2021/12/11 05:17:49;;;;;;;32.78;18.42;;;-1.80;99.90;;;;;;5129915;27;20054;-66
2021/12/11 05:20:19;;;;;;;29.15;18.75;;;-1.60;99.90;;;;;;5114216;27;20464;-66
2021/12/11 05:22:46;;;;;;;33.22;19.35;;;-1.60;99.90;;;;;;5129519;27;20047;-66
2021/12/11 05:25:13;;;;;;;33.13;18.73;;;-1.60;99.90;;;;;;5127073;28;20551;-66
2021/12/11 05:27:42;;;;;;;30.40;19.13;;;-1.60;99.90;;;;;;5128399;28;20122;-66
2021/12/11 05:30:14;;;;;;;31.73;18.90;;;-1.50;99.90;;;;;;5133075;27;20067;-66
2021/12/11 05:32:40;;;;;;;28.52;18.38;;;-1.60;99.90;;;;;;5129621;27;20388;-66
2021/12/11 05:35:08;;;;;;;27.63;17.45;;;-1.60;99.90;;;;;;5129338;27;20046;-66
2021/12/11 05:37:34;;;;;;;31.00;17.85;;;-1.60;99.90;;;;;;5129362;27;20044;-66
2021/12/11 05:40:00;;;;;;;29.15;16.08;;;-1.60;99.90;;;;;;5125150;28;20048;-66
2021/12/11 05:42:26;;;;;;;26.60;16.30;;;-1.80;99.90;;;;;;5127423;28;20047;-66
2021/12/11 05:44:52;;;;;;;33.33;18.77;;;-2.00;99.90;;;;;;5116324;28;20071;-66
2021/12/11 05:47:20;;;;;;;33.03;18.45;;;-2.00;99.90;;;;;;5113733;28;20073;-66
2021/12/11 05:49:47;;;;;;;34.53;19.73;;;-2.10;99.90;;;;;;5127974;27;20056;-66
2021/12/11 05:52:13;;;;;;;30.27;18.00;;;-2.10;99.90;;;;;;5110636;28;20044;-67
2021/12/11 05:54:44;;;;;;;25.48;16.42;;;-2.20;99.90;;;;;;5134666;27;20062;-67
2021/12/11 05:57:12;;;;;;;27.33;17.00;;;-2.30;99.90;;;;;;5127597;28;20051;-66
2021/12/11 05:59:42;;;;;;;26.88;17.83;;;-2.40;99.90;;;;;;5128324;27;20047;-66
2021/12/11 06:02:19;;;;;;;28.50;16.92;;;-2.40;99.90;;;;;;5110797;28;20116;-66
2021/12/11 06:04:48;;;;;;;29.30;17.15;;;-2.40;99.90;;;;;;5132183;27;20040;-66
2021/12/11 06:07:15;;;;;;;27.85;17.00;;;-2.30;99.90;;;;;;5127807;27;20044;-67
2021/12/11 06:09:46;;;;;;;28.08;17.52;;;-2.40;99.90;;;;;;5113465;27;20558;-66
2021/12/11 06:12:14;;;;;;;25.70;16.23;;;-2.40;99.90;;;;;;5124348;27;20047;-67
2021/12/11 06:14:41;;;;;;;23.05;15.70;;;-2.40;99.90;;;;;;5130393;27;20092;-67
2021/12/11 06:17:10;;;;;;;25.13;16.92;;;-2.50;99.90;;;;;;5130629;27;20059;-66
2021/12/11 06:19:36;;;;;;;27.30;16.48;;;-2.50;99.90;;;;;;5108616;28;20048;-66
2021/12/11 06:22:02;;;;;;;24.55;15.15;;;-2.60;99.90;;;;;;5121375;27;20111;-66
2021/12/11 06:24:29;;;;;;;26.02;16.05;;;-2.60;99.90;;;;;;5125979;27;20059;-66
2021/12/11 06:26:57;;;;;;;25.45;15.73;;;-2.60;99.90;;;;;;5125540;27;20131;-66
2021/12/11 06:29:23;;;;;;;25.77;15.45;;;-2.60;99.90;;;;;;5126043;28;20039;-66
2021/12/11 06:31:50;;;;;;;31.80;17.17;;;-2.60;99.90;;;;;;5131951;27;20103;-66
2021/12/11 06:34:16;;;;;;;30.52;17.42;;;-2.60;99.90;;;;;;5125101;27;20039;-66
2021/12/11 06:36:43;;;;;;;31.00;19.75;;;-2.60;99.90;;;;;;5127852;27;20040;-66
2021/12/11 06:39:13;;;;;;;27.55;17.15;;;-2.60;99.90;;;;;;5125338;27;20040;-66
2021/12/11 06:41:42;;;;;;;25.65;16.27;;;-2.60;99.90;;;;;;5125983;27;20496;-67
2021/12/11 06:44:09;;;;;;;34.25;20.23;;;-2.60;99.90;;;;;;5126009;28;20064;-65
2021/12/11 06:46:37;;;;;;;30.38;19.70;;;-2.70;99.90;;;;;;5109443;27;20034;-66
2021/12/11 06:49:04;;;;;;;32.75;19.55;;;-2.70;99.90;;;;;;5126623;27;20119;-65
2021/12/11 06:51:31;;;;;;;33.65;19.75;;;-2.60;99.90;;;;;;5128526;27;20047;-65
2021/12/11 06:54:00;;;;;;;30.23;18.13;;;-2.50;99.90;;;;;;5129353;27;20073;-66
2021/12/11 06:56:27;;;;;;;33.08;18.48;;;-2.50;99.90;;;;;;5109637;28;20074;-65
2021/12/11 06:58:54;;;;;;;30.80;18.58;;;-2.50;99.90;;;;;;5111722;28;20055;-66
2021/12/11 07:01:22;;;;;;;26.50;17.67;;;-2.60;99.90;;;;;;5126588;28;20064;-66
2021/12/11 07:03:48;;;;;;;29.63;17.83;;;-2.60;99.90;;;;;;5125987;28;20050;-66
2021/12/11 07:06:15;;;;;;;28.83;16.77;;;-2.70;99.90;;;;;;5129248;27;20028;-66
2021/12/11 07:08:42;;;;;;;24.73;16.98;;;-2.70;99.90;;;;;;5112102;28;20101;-66
2021/12/11 07:11:10;;;;;;;27.50;17.83;;;-2.70;99.90;;;;;;5111057;28;20488;-66
2021/12/11 07:13:36;;;;;;;28.83;17.17;;;-2.60;99.90;;;;;;5130634;27;20043;-65
2021/12/11 07:16:03;;;;;;;33.65;18.42;;;-2.60;99.90;;;;;;5127199;27;20050;-65
2021/12/11 07:18:31;;;;;;;29.17;17.50;;;-2.60;99.90;;;;;;5105703;28;20081;-65
2021/12/11 07:20:57;;;;;;;32.35;18.55;;;-2.60;99.90;;;;;;5098876;28;20089;-65
2021/12/11 07:23:23;;;;;;;31.10;20.00;;;-2.60;99.90;;;;;;5108392;28;20111;-65
2021/12/11 07:26:02;;;;;;;30.13;19.65;;;-2.50;99.90;;;;;;5112563;28;20053;-65
2021/12/11 07:28:29;;;;;;;30.73;19.00;;;-2.40;99.90;;;;;;5107487;28;20041;-66
2021/12/11 07:30:57;;;;;;;32.28;19.58;;;-2.40;99.90;;;;;;5125527;28;20051;-65
2021/12/11 07:33:24;;;;;;;33.28;19.38;;;-2.40;99.90;;;;;;5125324;28;20100;-65
2021/12/11 07:35:51;;;;;;;30.88;19.33;;;-2.40;99.90;;;;;;5109717;28;20051;-65
2021/12/11 07:38:18;;;;;;;31.90;20.00;;;-2.30;99.90;;;;;;5090387;28;20090;-65
2021/12/11 07:40:48;;;;;;;33.50;20.70;;;-2.30;99.90;;;;;;5108462;28;20566;-66
2021/12/11 07:43:15;;;;;;;38.00;20.25;;;-2.30;99.90;;;;;;5109999;28;20051;-66
2021/12/11 07:45:41;;;;;;;31.42;19.70;;;-2.30;99.90;;;;;;5091412;28;20035;-66
2021/12/11 07:48:08;;;;;;;31.52;19.35;;;-2.40;99.90;;;;;;5107191;28;20046;-65
2021/12/11 07:50:33;;;;;;;30.30;19.42;;;-2.40;99.90;;;;;;5126937;27;20047;-65
2021/12/11 07:53:00;;;;;;;33.08;20.23;;;-2.40;99.90;;;;;;5107637;28;20051;-66
2021/12/11 07:55:26;;;;;;;32.83;20.92;;;-2.30;99.90;;;;;;5129747;27;20044;-65
2021/12/11 07:57:52;;;;;;;28.65;18.05;;;-2.20;99.90;;;;;;5126435;28;20091;-65
2021/12/11 08:00:21;;;;;;;30.48;18.15;;;-2.30;99.90;;;;;;5126130;28;20075;-65
2021/12/11 08:02:48;;;;;;;25.55;14.63;;;-2.40;99.90;;;;;;5131469;28;20048;-65
2021/12/11 08:05:14;;;;;;;27.58;17.75;;;-2.50;99.90;;;;;;5127429;28;20553;-66
2021/12/11 08:07:41;;;;;;;29.40;17.85;;;-2.60;99.90;;;;;;5094048;28;20043;-66
2021/12/11 08:10:11;;;;;;;31.38;17.55;;;-2.60;99.90;;;;;;5127817;28;20145;-66
2021/12/11 08:12:38;;;;;;;32.40;19.35;;;-2.70;99.90;;;;;;5090648;28;20039;-66
2021/12/11 08:15:06;;;;;;;36.45;22.73;;;-2.60;99.90;;;;;;5106277;28;20050;-66
2021/12/11 08:17:31;;;;;;;36.35;22.58;;;-2.50;99.90;;;;;;5128190;28;20051;-66
2021/12/11 08:19:57;;;;;;;43.70;24.48;;;-2.40;99.90;;;;;;5132203;28;20044;-63
2021/12/11 08:22:24;;;;;;;40.28;24.02;;;-2.20;99.90;;;;;;5107479;28;20058;-63
2021/12/11 08:24:50;;;;;;;44.78;24.98;;;-2.20;99.90;;;;;;5131385;27;20487;-64
2021/12/11 08:27:20;;;;;;;41.58;24.75;;;-2.10;99.90;;;;;;5109931;27;20044;-62
2021/12/11 08:29:49;;;;;;;43.78;26.27;;;-2.10;99.90;;;;;;5142593;27;20035;-62
2021/12/11 08:32:16;;;;;;;52.88;29.40;;;-2.00;99.90;;;;;;5122753;27;20408;-62
2021/12/11 08:34:42;;;;;;;55.55;28.95;;;-1.90;99.90;;;;;;5117020;27;20114;-62
2021/12/11 08:37:11;;;;;;;56.83;31.10;;;-1.70;99.90;;;;;;5118588;27;20049;-64
2021/12/11 08:39:38;;;;;;;53.38;29.73;;;-1.60;99.90;;;;;;5118105;27;20071;-65
2021/12/11 08:42:10;;;;;;;53.63;30.10;;;-1.60;99.90;;;;;;5137630;27;20047;-64
2021/12/11 08:44:39;;;;;;;52.53;30.10;;;-1.60;99.90;;;;;;5117692;27;20046;-64
2021/12/11 08:47:10;;;;;;;62.90;34.35;;;-1.50;99.90;;;;;;5117887;27;20046;-63
2021/12/11 08:49:39;;;;;;;77.80;37.47;;;-1.30;99.90;;;;;;5114311;27;20048;-63
2021/12/11 08:52:05;;;;;;;66.43;36.67;;;-1.20;99.90;;;;;;5114927;28;20059;-63
2021/12/11 08:54:35;;;;;;;71.75;36.00;;;-1.10;99.90;;;;;;5110761;28;20067;-63
2021/12/11 08:57:08;;;;;;;79.97;39.58;;;-1.10;99.90;;;;;;5123176;27;20043;-64
2021/12/11 08:59:37;;;;;;;70.10;37.00;;;-0.90;99.90;;;;;;5115194;28;20130;-64
2021/12/11 09:02:06;;;;;;;79.03;40.25;;;-0.80;99.90;;;;;;5113446;27;20058;-64
2021/12/11 09:04:53;;;;;;;70.75;38.17;;;-0.70;99.90;;;;;;5115238;27;20046;-63
2021/12/11 09:07:24;;;;;;;82.80;39.53;;;-0.60;99.90;;;;;;5116378;27;20506;-63
2021/12/11 09:10:18;;;;;;;72.35;36.58;;;-0.50;99.90;;;;;;5103914;27;20047;-64
2021/12/11 09:12:54;;;;;;;69.32;35.60;;;-0.50;99.90;;;;;;5137153;27;20043;-65
2021/12/11 09:15:32;;;;;;;68.68;36.83;;;-0.50;99.90;;;;;;5128224;27;20047;-65
2021/12/11 09:18:05;;;;;;;69.90;36.25;;;-0.40;99.90;;;;;;5133648;27;20039;-66
2021/12/11 09:20:45;;;;;;;69.75;37.58;;;-0.40;99.90;;;;;;5104932;27;20043;-64
2021/12/11 09:23:42;;;;;;;71.53;38.83;;;-0.30;99.90;;;;;;5132637;27;20079;-66
2021/12/11 09:26:23;;;;;;;67.30;34.40;;;-0.20;99.90;;;;;;5087282;28;20052;-63
2021/12/11 09:28:51;;;;;;;;;;;-0.20;99.90;;;;;;5094785;28;20101;-64
2021/12/11 09:31:27;;;;;;;64.63;34.20;;;-0.20;99.90;;;;;;5091958;28;19924;-63
2021/12/11 09:34:08;;;;;;;64.28;34.50;;;-0.10;99.90;;;;;;5088307;28;20063;-63
2021/12/11 09:36:39;;;;;;;61.60;34.83;;;-0.10;99.90;;;;;;5086405;28;20060;-63
2021/12/11 09:39:11;;;;;;;60.03;35.53;;;-0.10;99.90;;;;;;5079643;28;20049;-65
2021/12/11 09:41:36;;;;;;;57.00;34.33;;;0.00;99.90;;;;;;5093741;28;20060;-62
2021/12/11 09:44:16;;;;;;;60.80;33.92;;;0.00;99.90;;;;;;5090755;28;20052;-63
2021/12/11 09:47:06;;;;;;;59.38;34.25;;;0.00;99.90;;;;;;5092524;28;20040;-63
2021/12/11 09:49:38;;;;;;;57.15;31.65;;;0.00;99.90;;;;;;5091343;28;20095;-63
2021/12/11 09:52:16;;;;;;;60.58;33.40;;;0.10;99.90;;;;;;5087112;28;20047;-63
2021/12/11 09:54:47;;;;;;;54.05;32.17;;;0.20;99.90;;;;;;5090165;28;20055;-64
2021/12/11 09:57:16;;;;;;;55.47;34.17;;;0.30;99.90;;;;;;5089822;28;20098;-64
2021/12/11 09:59:43;;;;;;;56.80;33.80;;;0.40;99.90;;;;;;5087244;28;20051;-64
2021/12/11 10:02:16;;;;;;;54.03;32.28;;;0.40;99.90;;;;;;5091241;28;20052;-63
2021/12/11 10:04:58;;;;;;;54.08;34.70;;;0.50;99.90;;;;;;5087123;28;20053;-63
2021/12/11 10:07:29;;;;;;;56.22;33.33;;;0.60;99.90;;;;;;5090223;28;20037;-63
2021/12/11 10:10:16;;;;;;;58.20;34.05;;;0.60;99.90;;;;;;5059026;28;20053;-63
2021/12/11 10:12:50;;;;;;;52.40;33.22;;;0.70;99.90;;;;;;5083996;28;20040;-63
2021/12/11 10:15:34;;;;;;;54.15;32.50;;;0.80;99.90;;;;;;5085860;28;20567;-63
2021/12/11 10:18:28;;;;;;;52.13;32.10;;;0.90;99.90;;;;;;5090468;28;20037;-63
2021/12/11 10:21:03;;;;;;;58.20;33.35;;;0.90;99.90;;;;;;5085393;28;20068;-64
2021/12/11 10:23:34;;;;;;;48.25;31.25;;;1.00;99.90;;;;;;5085310;28;20075;-65
2021/12/11 10:26:02;;;;;;;50.35;32.97;;;1.10;99.90;;;;;;5095465;28;20056;-62
2021/12/11 10:28:29;;;;;;;50.90;32.65;;;1.20;99.90;;;;;;5085430;28;20511;-62
2021/12/11 10:31:10;;;;;;;51.25;33.40;;;1.20;99.90;;;;;;5086195;28;20044;-63
2021/12/11 10:33:37;;;;;;;51.53;33.00;;;1.30;99.90;;;;;;5088218;28;20052;-62
2021/12/11 10:36:14;;;;;;;48.00;31.85;;;1.30;99.90;;;;;;5089035;28;20821;-62
2021/12/11 10:38:40;;;;;;;54.13;31.63;;;1.30;99.90;;;;;;5086105;28;20059;-62
2021/12/11 10:41:09;;;;;;;53.47;32.40;;;1.30;99.90;;;;;;5083129;28;20075;-64
2021/12/11 10:43:42;;;;;;;53.47;34.25;;;1.40;99.90;;;;;;5089957;28;20052;-63
2021/12/11 10:46:11;;;;;;;49.00;31.10;;;1.50;99.90;;;;;;5087008;28;20044;-63
2021/12/11 10:48:37;;;;;;;46.53;32.50;;;1.50;99.90;;;;;;5085995;28;20083;-63
2021/12/11 10:51:08;;;;;;;42.95;29.83;;;1.60;99.90;;;;;;5083011;28;20036;-62
2021/12/11 10:53:35;;;;;;;47.42;30.58;;;1.70;99.90;;;;;;5085653;28;20060;-62
2021/12/11 10:56:03;;;;;;;44.67;29.55;;;1.70;99.90;;;;;;5084984;28;20032;-62
2021/12/11 10:58:35;;;;;;;45.38;28.67;;;1.80;99.90;;;;;;5086631;28;20507;-64
2021/12/11 11:01:50;;;;;;;48.85;29.35;;;1.80;99.90;;;;;;5088763;28;20504;-62
2021/12/11 11:04:25;;;;;;;44.15;30.33;;;2.00;99.90;;;;;;5006190;28;20065;-63
2021/12/11 11:06:51;;;;;;;44.13;30.08;;;2.10;99.90;;;;;;5015444;28;20083;-61
2021/12/11 11:09:20;;;;;;;49.65;32.22;;;2.10;99.90;;;;;;5004783;28;20054;-62
2021/12/11 11:11:48;;;;;;;52.08;32.17;;;2.10;99.90;;;;;;5006759;28;20054;-62
2021/12/11 11:14:15;;;;;;;44.78;31.27;;;2.10;99.90;;;;;;5000056;28;20045;-61
2021/12/11 11:16:45;;;;;;;48.72;30.20;;;2.10;99.90;;;;;;5016674;28;20538;-63
2021/12/11 11:19:11;;;;;;;51.33;30.77;;;2.20;99.90;;;;;;5019471;28;20510;-63
2021/12/11 11:21:43;;;;;;;43.15;29.27;;;2.20;99.90;;;;;;5003941;28;20045;-63
2021/12/11 11:24:11;;;;;;;44.22;29.10;;;2.30;99.90;;;;;;5012019;28;20052;-63
2021/12/11 11:26:43;;;;;;;49.20;30.10;;;2.40;99.90;;;;;;5045025;28;20042;-63
2021/12/11 11:29:15;;;;;;;46.22;31.60;;;2.40;99.90;;;;;;5047663;28;20345;-63
2021/12/11 11:31:43;;;;;;;42.42;27.80;;;2.50;99.90;;;;;;5034128;28;20056;-63
2021/12/11 11:34:12;;;;;;;44.05;28.90;;;2.50;99.90;;;;;;5030249;28;20045;-63
2021/12/11 11:36:38;;;;;;;44.47;29.15;;;2.60;99.90;;;;;;5026027;28;20150;-61
2021/12/11 11:39:09;;;;;;;49.50;31.33;;;2.70;99.90;;;;;;5060121;28;20059;-61
2021/12/11 11:41:43;;;;;;;;;;;2.70;99.90;;;;;;5080886;28;20059;-61
2021/12/11 11:44:10;;;;;;;46.72;31.25;;;2.80;99.90;;;;;;5085596;28;19924;-61
2021/12/11 11:46:37;;;;;;;49.50;32.03;;;2.80;99.90;;;;;;5083565;28;20437;-61
2021/12/11 11:49:06;;;;;;;44.17;28.13;;;2.80;99.90;;;;;;5074995;28;20056;-60
2021/12/11 11:51:43;;;;;;;48.55;29.38;;;2.90;99.90;;;;;;5081829;28;20052;-61
2021/12/11 11:54:11;;;;;;;46.40;28.75;;;2.90;99.90;;;;;;5082696;28;20044;-61
2021/12/11 11:56:42;;;;;;;46.97;29.50;;;3.00;99.90;;;;;;5085076;28;20072;-61
2021/12/11 11:59:10;;;;;;;46.63;29.25;;;3.00;99.90;;;;;;5092336;28;20037;-61
2021/12/11 12:01:40;;;;;;;42.90;27.92;;;3.10;99.90;;;;;;5089490;28;20084;-60
2021/12/11 12:04:11;;;;;;;47.90;29.40;;;3.10;99.90;;;;;;5088189;28;20044;-61
2021/12/11 12:06:37;;;;;;;;;;;3.20;99.90;;;;;;5107410;28;20059;-61
2021/12/11 12:09:06;;;;;;;42.80;27.40;;;3.30;99.90;;;;;;5087890;28;19928;-64
2021/12/11 12:11:35;;;;;;;46.22;27.92;;;3.40;99.90;;;;;;5086969;28;20048;-61
2021/12/11 12:14:07;;;;;;;43.45;27.67;;;3.40;99.90;;;;;;5086365;28;20059;-62
2021/12/11 12:16:36;;;;;;;44.42;27.90;;;3.50;99.90;;;;;;5081316;28;20048;-61
2021/12/11 12:19:03;;;;;;;48.65;27.98;;;3.50;99.90;;;;;;5103903;28;20044;-61
2021/12/11 12:21:31;;;;;;;47.08;30.02;;;3.50;99.90;;;;;;5101669;28;20048;-61
2021/12/11 12:23:57;;;;;;;43.90;27.60;;;3.50;99.90;;;;;;5104519;28;20067;-61
2021/12/11 12:26:25;;;;;;;45.13;27.00;;;3.50;99.90;;;;;;5105466;28;20410;-61
2021/12/11 12:28:52;;;;;;;45.15;28.20;;;3.60;99.90;;;;;;5104649;28;20134;-62
2021/12/11 12:31:24;;;;;;;48.03;30.25;;;3.70;99.90;;;;;;5101965;28;20081;-62
2021/12/11 12:33:49;;;;;;;47.70;28.67;;;3.60;99.90;;;;;;5123036;28;20065;-62
2021/12/11 12:36:17;;;;;;;43.60;28.92;;;3.60;99.90;;;;;;5123872;28;20598;-62
2021/12/11 12:38:46;;;;;;;48.72;30.23;;;3.70;99.90;;;;;;5105319;28;20085;-62
2021/12/11 12:41:24;;;;;;;45.72;27.50;;;3.70;99.90;;;;;;5121484;28;20115;-62
2021/12/11 12:44:16;;;;;;;43.55;27.48;;;3.80;99.90;;;;;;5104430;28;20188;-62
2021/12/11 12:46:57;;;;;;;;;;;3.70;99.90;;;;;;5100020;28;20044;-62
2021/12/11 12:49:31;;;;;;;45.60;27.20;;;3.70;99.90;;;;;;5104315;28;20008;-62
2021/12/11 12:52:03;;;;;;;43.00;28.30;;;3.70;99.90;;;;;;5099931;28;20523;-62
2021/12/11 12:54:29;;;;;;;41.65;27.02;;;3.70;99.90;;;;;;5104372;28;20146;-62
2021/12/11 12:57:11;;;;;;;50.75;28.25;;;3.70;99.90;;;;;;5079402;28;20053;-62
2021/12/11 12:59:46;;;;;;;43.88;27.42;;;3.60;99.90;;;;;;5060986;28;20060;-63
2021/12/11 13:02:18;;;;;;;49.08;29.27;;;3.60;99.90;;;;;;5083971;28;20044;-62
2021/12/11 13:04:52;;;;;;;46.25;28.05;;;3.60;99.90;;;;;;5078743;28;20495;-62
2021/12/11 13:07:19;;;;;;;45.85;27.38;;;3.60;99.90;;;;;;5067045;28;20079;-61